Time;durP1;ratioP1;P1;durP2;ratioP2;P2;SDS_P1;SDS_P2;PMS_P1;PMS_P2;Temp;Humidity;BMP_temperature;BMP_pressure;BME280_temperature;BME280_humidity;BME280_pressure;Samples;Min_cycle;Max_cycle;Signal;HPM_P1;HPM_P2
2024/03/13 00:01:43;;;;;;;;;;;9.60;89.00;;;;;;5016170;28;87005;-47
2024/03/13 00:04:09;;;;;;;;;;;9.50;89.00;;;;;;5017308;28;88745;-47
2024/03/13 00:06:36;;;;;;;;;;;9.50;89.00;;;;;;5016313;28;87847;-47
2024/03/13 00:09:03;;;;;;;;;;;9.50;89.00;;;;;;5018512;28;87956;-47
2024/03/13 00:11:29;;;;;;;;;;;9.50;89.00;;;;;;5022950;28;88573;-47
2024/03/13 00:13:55;;;;;;;;;;;9.50;89.00;;;;;;5017207;28;86975;-46
2024/03/13 00:16:23;;;;;;;;;;;9.50;89.10;;;;;;5019102;28;86906;-46
2024/03/13 00:18:49;;;;;;;;;;;9.50;89.00;;;;;;5015253;28;87506;-47
2024/03/13 00:21:14;;;;;;;;;;;9.50;89.00;;;;;;5022398;28;86368;-47
2024/03/13 00:23:40;;;;;;;;;;;9.50;89.00;;;;;;5016590;28;88490;-48
2024/03/13 00:26:06;;;;;;;;;;;9.50;89.10;;;;;;5016129;28;87681;-48
2024/03/13 00:28:32;;;;;;;;;;;9.50;89.00;;;;;;5014603;28;88232;-47
2024/03/13 00:30:58;;;;;;;;;;;9.50;89.00;;;;;;5022099;28;87531;-48
2024/03/13 00:33:25;;;;;;;;;;;9.50;89.10;;;;;;5013065;28;87053;-47
2024/03/13 00:35:54;;;;;;;;;;;9.50;89.10;;;;;;5011507;28;87886;-47
2024/03/13 00:38:20;;;;;;;;;;;9.50;89.20;;;;;;5013612;28;88664;-47
2024/03/13 00:40:48;;;;;;;;;;;9.40;89.20;;;;;;5009635;28;87003;-47
2024/03/13 00:43:13;;;;;;;;;;;9.50;89.10;;;;;;5024060;28;86990;-48
2024/03/13 00:45:39;;;;;;;;;;;9.50;89.20;;;;;;5015065;28;86267;-46
2024/03/13 00:48:05;;;;;;;;;;;9.40;89.20;;;;;;5017300;28;86907;-45
2024/03/13 00:50:31;;;;;;;;;;;9.40;89.10;;;;;;5014556;28;87642;-46
2024/03/13 00:52:56;;;;;;;;;;;9.40;89.20;;;;;;5014312;28;88002;-48
2024/03/13 00:55:23;;;;;;;;;;;9.40;89.20;;;;;;5019986;28;87835;-47
2024/03/13 00:57:49;;;;;;;;;;;9.40;89.20;;;;;;5015716;28;88808;-47
2024/03/13 01:00:18;;;;;;;;;;;9.40;89.20;;;;;;5021751;28;87055;-48
2024/03/13 01:02:44;;;;;;;;;;;9.40;89.30;;;;;;5017201;28;88247;-47
2024/03/13 01:05:13;;;;;;;;;;;9.40;89.30;;;;;;5020714;28;87179;-47
2024/03/13 01:07:39;;;;;;;;;;;9.40;89.20;;;;;;5018394;28;87261;-47
2024/03/13 01:10:05;;;;;;;;;;;9.40;89.20;;;;;;5019155;28;87924;-48
2024/03/13 01:12:31;;;;;;;;;;;9.40;89.30;;;;;;5020755;28;87751;-47
2024/03/13 01:14:57;;;;;;;;;;;9.40;89.20;;;;;;5015875;28;87140;-48
2024/03/13 01:17:22;;;;;;;;;;;9.40;89.20;;;;;;5016349;28;88631;-46
2024/03/13 01:19:48;;;;;;;;;;;9.40;89.20;;;;;;5018733;28;86915;-47
2024/03/13 01:22:17;;;;;;;;;;;9.40;89.30;;;;;;5019578;28;87552;-46
2024/03/13 01:24:43;;;;;;;;;;;9.40;89.30;;;;;;5025397;28;88036;-47
2024/03/13 01:27:09;;;;;;;;;;;9.40;89.30;;;;;;5019215;28;88333;-45
2024/03/13 01:29:36;;;;;;;;;;;9.30;89.20;;;;;;5016463;28;87665;-48
2024/03/13 01:32:01;;;;;;;;;;;9.30;89.30;;;;;;5019197;28;87025;-47
2024/03/13 01:34:27;;;;;;;;;;;9.30;89.30;;;;;;5018516;28;86798;-47
2024/03/13 01:39:37;;;;;;;;;;;9.30;89.20;;;;;;5015283;28;87018;-45
2024/03/13 01:56:26;;;;;;;;;;;9.30;89.40;;;;;;5020177;28;87629;-47
2024/03/13 01:59:02;;;;;;;;;;;9.30;89.50;;;;;;5016960;28;87382;-48
2024/03/13 02:04:15;;;;;;;;;;;9.30;89.40;;;;;;5017258;28;87033;-47
2024/03/13 02:06:42;;;;;;;;;;;9.30;89.40;;;;;;5020405;28;87898;-47
2024/03/13 02:09:08;;;;;;;;;;;9.30;89.30;;;;;;5017284;28;87977;-47
2024/03/13 02:11:35;;;;;;;;;;;9.30;89.40;;;;;;5020962;28;87917;-47
2024/03/13 02:14:04;;;;;;;;;;;9.30;89.40;;;;;;5022284;28;87035;-47
2024/03/13 02:16:30;;;;;;;;;;;9.30;89.40;;;;;;5017385;28;87293;-47
2024/03/13 02:18:58;;;;;;;;;;;9.20;89.40;;;;;;5020286;28;87435;-47
2024/03/13 02:21:24;;;;;;;;;;;9.30;89.30;;;;;;5019666;28;87067;-46
2024/03/13 02:23:50;;;;;;;;;;;9.30;89.40;;;;;;5022927;28;86927;-45
2024/03/13 02:26:15;;;;;;;;;;;9.30;89.40;;;;;;5018967;28;87732;-46
2024/03/13 02:28:41;;;;;;;;;;;9.20;89.30;;;;;;5019893;28;86928;-47
2024/03/13 02:31:07;;;;;;;;;;;9.20;89.30;;;;;;5015898;28;86962;-47
2024/03/13 02:33:32;;;;;;;;;;;9.20;89.30;;;;;;5017628;28;89532;-46
2024/03/13 02:35:58;;;;;;;;;;;9.20;89.40;;;;;;5020072;28;87647;-47
2024/03/13 02:38:24;;;;;;;;;;;9.20;89.40;;;;;;5019133;28;87879;-45
2024/03/13 02:40:50;;;;;;;;;;;9.20;89.40;;;;;;5022167;28;87080;-48
2024/03/13 02:43:15;;;;;;;;;;;9.20;89.40;;;;;;5019671;28;88031;-45
2024/03/13 02:45:42;;;;;;;;;;;9.20;89.40;;;;;;5021080;28;87717;-47
2024/03/13 02:48:08;;;;;;;;;;;9.20;89.30;;;;;;5017301;28;87110;-47
2024/03/13 02:50:33;;;;;;;;;;;9.20;89.40;;;;;;5019969;28;87891;-46
2024/03/13 02:52:59;;;;;;;;;;;9.20;89.30;;;;;;5019095;28;87654;-46
2024/03/13 02:55:24;;;;;;;;;;;9.20;89.40;;;;;;5017971;28;86964;-47
2024/03/13 02:57:51;;;;;;;;;;;9.20;89.40;;;;;;5019275;28;88401;-47
2024/03/13 03:00:17;;;;;;;;;;;9.20;89.40;;;;;;5020016;28;87044;-47
2024/03/13 03:02:43;;;;;;;;;;;9.20;89.40;;;;;;5017674;28;87521;-47
2024/03/13 03:05:09;;;;;;;;;;;9.20;89.40;;;;;;5017225;28;89201;-47
2024/03/13 03:07:35;;;;;;;;;;;9.20;89.50;;;;;;5019047;28;87051;-46
2024/03/13 03:10:01;;;;;;;;;;;9.20;89.40;;;;;;5014229;28;87057;-46
2024/03/13 03:12:28;;;;;;;;;;;9.20;89.50;;;;;;5015859;28;87688;-47
2024/03/13 03:14:57;;;;;;;;;;;9.10;89.40;;;;;;5019933;28;86238;-47
2024/03/13 03:17:22;;;;;;;;;;;9.10;89.40;;;;;;5018741;28;90090;-47
2024/03/13 03:19:51;;;;;;;;;;;9.10;89.40;;;;;;5012364;28;87094;-46
2024/03/13 03:22:19;;;;;;;;;;;9.20;89.40;;;;;;5011375;28;87918;-45
2024/03/13 03:24:49;;;;;;;;;;;9.10;89.40;;;;;;5018931;28;87359;-46
2024/03/13 03:27:14;;;;;;;;;;;9.10;89.40;;;;;;5017368;28;87799;-45
2024/03/13 03:29:43;;;;;;;;;;;9.10;89.50;;;;;;5016548;28;86986;-47
2024/03/13 03:32:09;;;;;;;;;;;9.10;89.50;;;;;;5015367;28;87684;-48
2024/03/13 03:34:35;;;;;;;;;;;9.10;89.50;;;;;;5015942;28;87107;-47
2024/03/13 03:37:03;;;;;;;;;;;9.10;89.50;;;;;;5020525;28;87674;-46
2024/03/13 03:39:29;;;;;;;;;;;9.10;89.40;;;;;;5017059;28;87016;-48
2024/03/13 03:41:56;;;;;;;;;;;9.10;89.50;;;;;;5017557;28;87038;-46
2024/03/13 03:44:21;;;;;;;;;;;9.10;89.50;;;;;;5016773;28;87518;-47
2024/03/13 03:46:47;;;;;;;;;;;9.10;89.50;;;;;;5016631;28;87934;-46
2024/03/13 03:49:13;;;;;;;;;;;9.10;89.50;;;;;;5019008;28;87583;-47
2024/03/13 03:51:38;;;;;;;;;;;9.10;89.50;;;;;;5016601;28;87939;-45
2024/03/13 03:54:05;;;;;;;;;;;9.10;89.50;;;;;;5017594;28;86966;-47
2024/03/13 03:56:38;;;;;;;;;;;9.10;89.60;;;;;;5016642;28;88499;-47
2024/03/13 03:59:10;;;;;;;;;;;9.10;89.50;;;;;;5014295;28;88771;-47
2024/03/13 04:01:35;;;;;;;;;;;9.10;89.60;;;;;;5012877;28;87175;-47
2024/03/13 04:04:03;;;;;;;;;;;9.00;89.50;;;;;;5015101;28;86585;-47
2024/03/13 04:06:29;;;;;;;;;;;9.10;89.50;;;;;;5009712;28;87050;-46
2024/03/13 04:08:55;;;;;;;;;;;9.00;89.50;;;;;;5017247;28;86947;-46
2024/03/13 04:11:21;;;;;;;;;;;9.00;89.40;;;;;;5013550;28;88545;-48
2024/03/13 04:13:46;;;;;;;;;;;9.00;89.50;;;;;;5015567;28;86957;-45
2024/03/13 04:16:13;;;;;;;;;;;9.00;89.60;;;;;;5013202;28;86915;-47
2024/03/13 04:18:38;;;;;;;;;;;9.00;89.60;;;;;;5014204;28;87558;-46
2024/03/13 04:21:04;;;;;;;;;;;9.00;89.70;;;;;;5019916;28;87712;-47
2024/03/13 04:23:30;;;;;;;;;;;9.00;89.60;;;;;;5018831;28;87453;-46
2024/03/13 04:25:55;;;;;;;;;;;9.00;89.60;;;;;;5017854;28;86995;-45
2024/03/13 04:28:22;;;;;;;;;;;9.00;89.50;;;;;;5017384;28;86893;-45
2024/03/13 04:30:47;;;;;;;;;;;9.00;89.50;;;;;;5012670;28;87496;-47
2024/03/13 04:33:16;;;;;;;;;;;9.00;89.50;;;;;;5020715;28;87513;-47
2024/03/13 04:35:42;;;;;;;;;;;9.00;89.50;;;;;;5017215;28;88690;-46
2024/03/13 04:38:09;;;;;;;;;;;9.00;89.70;;;;;;5014705;28;88834;-47
2024/03/13 04:40:37;;;;;;;;;;;9.00;89.70;;;;;;5011353;28;87262;-46
2024/03/13 04:43:03;;;;;;;;;;;9.00;89.70;;;;;;5019502;28;87949;-47
2024/03/13 04:45:29;;;;;;;;;;;9.00;89.70;;;;;;5012529;28;86902;-47
2024/03/13 04:47:54;;;;;;;;;;;9.00;89.60;;;;;;5015407;28;87012;-51
2024/03/13 04:50:20;;;;;;;;;;;9.00;89.70;;;;;;5017020;28;87359;-45
2024/03/13 04:52:45;;;;;;;;;;;9.00;89.70;;;;;;5013502;28;86664;-46
2024/03/13 04:55:11;;;;;;;;;;;8.90;89.60;;;;;;5016791;28;87055;-47
2024/03/13 04:57:38;;;;;;;;;;;9.00;89.70;;;;;;5013273;28;87579;-46
2024/03/13 05:00:05;;;;;;;;;;;8.90;89.60;;;;;;5016897;28;88843;-46
2024/03/13 05:02:30;;;;;;;;;;;8.90;89.60;;;;;;5011845;28;87842;-46
2024/03/13 05:04:57;;;;;;;;;;;8.90;89.60;;;;;;5019062;28;87812;-45
2024/03/13 05:07:23;;;;;;;;;;;8.90;89.60;;;;;;5013004;28;87753;-45
2024/03/13 05:09:49;;;;;;;;;;;8.90;89.60;;;;;;5013715;28;87540;-47
2024/03/13 05:12:15;;;;;;;;;;;8.90;89.50;;;;;;5013363;28;87090;-46
2024/03/13 05:14:41;;;;;;;;;;;8.90;89.60;;;;;;5016553;28;86986;-47
2024/03/13 05:17:09;;;;;;;;;;;8.90;89.60;;;;;;5015074;28;87693;-47
2024/03/13 05:19:35;;;;;;;;;;;8.90;89.70;;;;;;5016620;28;87106;-46
2024/03/13 05:22:01;;;;;;;;;;;8.90;89.70;;;;;;5016878;28;87856;-46
2024/03/13 05:24:26;;;;;;;;;;;8.90;89.70;;;;;;5015307;28;88133;-47
2024/03/13 05:26:52;;;;;;;;;;;8.90;89.60;;;;;;5015159;28;88610;-48
2024/03/13 05:29:17;;;;;;;;;;;8.90;89.60;;;;;;5012853;28;88829;-47
2024/03/13 05:31:43;;;;;;;;;;;8.90;89.70;;;;;;5019563;28;86931;-47
2024/03/13 05:34:09;;;;;;;;;;;8.90;89.60;;;;;;5011133;28;88629;-47
2024/03/13 05:36:38;;;;;;;;;;;8.90;89.60;;;;;;5014962;28;88677;-47
2024/03/13 05:39:05;;;;;;;;;;;8.90;89.50;;;;;;5012738;28;87003;-46
2024/03/13 05:41:31;;;;;;;;;;;8.90;89.40;;;;;;5017422;28;88464;-45
2024/03/13 05:43:56;;;;;;;;;;;8.80;89.60;;;;;;5017000;28;88153;-47
2024/03/13 05:46:22;;;;;;;;;;;8.80;89.60;;;;;;5020505;28;87605;-45
2024/03/13 05:48:48;;;;;;;;;;;8.80;89.60;;;;;;5015298;28;89850;-46
2024/03/13 05:51:14;;;;;;;;;;;8.80;89.60;;;;;;5019553;28;87102;-47
2024/03/13 05:53:39;;;;;;;;;;;8.80;89.60;;;;;;5018688;28;88274;-47
2024/03/13 05:56:05;;;;;;;;;;;8.80;89.60;;;;;;5017335;28;87237;-47
2024/03/13 05:58:31;;;;;;;;;;;8.80;89.60;;;;;;5019769;28;86930;-46
2024/03/13 06:00:56;;;;;;;;;;;8.80;89.60;;;;;;5017138;28;87154;-45
2024/03/13 06:03:22;;;;;;;;;;;8.80;89.50;;;;;;5016957;28;87493;-45
2024/03/13 06:05:47;;;;;;;;;;;8.80;89.50;;;;;;5019772;28;87886;-45
2024/03/13 06:08:13;;;;;;;;;;;8.80;89.60;;;;;;5016644;28;87346;-47
2024/03/13 06:10:39;;;;;;;;;;;8.80;89.50;;;;;;5019390;28;88771;-46
2024/03/13 06:13:04;;;;;;;;;;;8.80;89.60;;;;;;5017815;28;88350;-47
2024/03/13 06:15:30;;;;;;;;;;;8.80;89.50;;;;;;5013185;28;87429;-47
2024/03/13 06:17:56;;;;;;;;;;;8.80;89.50;;;;;;5019109;28;87095;-46
2024/03/13 06:20:21;;;;;;;;;;;8.80;89.50;;;;;;5021498;28;87380;-47
2024/03/13 06:22:47;;;;;;;;;;;8.80;89.50;;;;;;5018013;28;87657;-47
2024/03/13 06:25:13;;;;;;;;;;;8.80;89.60;;;;;;5018681;28;87029;-46
2024/03/13 06:27:39;;;;;;;;;;;8.70;90.00;;;;;;5015476;28;87917;-46
2024/03/13 06:30:05;;;;;;;;;;;8.80;89.40;;;;;;5022788;28;86441;-46
2024/03/13 06:32:31;;;;;;;;;;;8.80;89.30;;;;;;5014798;28;87035;-47
2024/03/13 06:34:57;;;;;;;;;;;8.80;89.30;;;;;;5019539;28;88335;-47
2024/03/13 06:37:25;;;;;;;;;;;8.80;89.50;;;;;;5017429;28;87853;-47
2024/03/13 06:39:52;;;;;;;;;;;8.70;89.50;;;;;;5018124;28;87709;-47
2024/03/13 06:42:18;;;;;;;;;;;8.80;89.50;;;;;;5012908;28;88634;-46
2024/03/13 06:44:44;;;;;;;;;;;8.70;89.40;;;;;;5017268;28;87005;-47
2024/03/13 06:47:11;;;;;;;;;;;8.70;89.40;;;;;;5020755;28;87561;-48
2024/03/13 06:49:39;;;;;;;;;;;8.70;89.50;;;;;;5015380;28;88661;-48
2024/03/13 06:52:05;;;;;;;;;;;8.70;89.50;;;;;;5016403;28;88063;-47
2024/03/13 06:54:31;;;;;;;;;;;8.70;89.50;;;;;;5019500;28;86737;-46
2024/03/13 06:56:56;;;;;;;;;;;8.70;89.40;;;;;;5016628;28;88731;-46
2024/03/13 06:59:23;;;;;;;;;;;8.70;89.60;;;;;;5013273;28;87088;-49
2024/03/13 07:01:51;;;;;;;;;;;8.70;89.60;;;;;;5017315;28;88514;-47
2024/03/13 07:04:17;;;;;;;;;;;8.70;89.60;;;;;;5014030;28;87312;-45
2024/03/13 07:06:43;;;;;;;;;;;8.70;89.60;;;;;;5015262;28;87164;-47
2024/03/13 07:09:09;;;;;;;;;;;8.70;89.50;;;;;;5018212;28;87441;-48
2024/03/13 07:11:36;;;;;;;;;;;8.70;89.50;;;;;;5020514;28;87055;-47
2024/03/13 07:14:02;;;;;;;;;;;8.70;89.40;;;;;;5018598;28;88798;-45
2024/03/13 07:16:28;;;;;;;;;;;8.70;89.50;;;;;;5018208;28;87684;-47
2024/03/13 07:18:58;;;;;;;;;;;8.70;89.50;;;;;;5020619;28;87875;-46
2024/03/13 07:21:24;;;;;;;;;;;8.70;89.50;;;;;;5016173;28;88719;-45
2024/03/13 07:23:49;;;;;;;;;;;8.70;89.50;;;;;;5017314;28;87083;-47
2024/03/13 07:26:15;;;;;;;;;;;8.70;89.40;;;;;;5016885;28;88893;-47
2024/03/13 07:28:41;;;;;;;;;;;8.70;89.50;;;;;;5014199;28;87915;-47
2024/03/13 07:31:07;;;;;;;;;;;8.70;89.50;;;;;;5013626;28;87100;-48
2024/03/13 07:33:33;;;;;;;;;;;8.70;89.50;;;;;;5013990;28;88042;-47
2024/03/13 07:35:59;;;;;;;;;;;8.70;89.60;;;;;;5015858;28;87044;-48
2024/03/13 07:38:24;;;;;;;;;;;8.70;89.50;;;;;;5017968;28;89328;-47
2024/03/13 07:40:50;;;;;;;;;;;8.60;89.50;;;;;;5015512;28;87508;-49
2024/03/13 07:43:16;;;;;;;;;;;8.70;89.50;;;;;;5017825;28;86278;-47
2024/03/13 07:45:41;;;;;;;;;;;8.70;89.50;;;;;;5017380;28;86990;-49
2024/03/13 07:48:10;;;;;;;;;;;8.70;89.50;;;;;;5017310;28;87259;-48
2024/03/13 07:50:38;;;;;;;;;;;8.70;89.40;;;;;;5016020;28;88997;-48
2024/03/13 07:53:04;;;;;;;;;;;8.70;89.40;;;;;;5015540;28;88873;-48
2024/03/13 07:55:31;;;;;;;;;;;8.70;89.40;;;;;;5018576;28;87637;-48
2024/03/13 07:57:57;;;;;;;;;;;8.70;89.50;;;;;;5016852;28;87890;-46
2024/03/13 08:00:22;;;;;;;;;;;8.70;89.40;;;;;;5015458;28;88566;-47
2024/03/13 08:02:48;;;;;;;;;;;8.70;89.30;;;;;;5016468;28;87226;-48
2024/03/13 08:05:16;;;;;;;;;;;8.70;89.30;;;;;;5012638;28;87899;-47
2024/03/13 08:07:46;;;;;;;;;;;8.70;89.30;;;;;;5012732;28;87915;-46
2024/03/13 08:10:15;;;;;;;;;;;8.70;89.30;;;;;;5019399;28;87475;-47
2024/03/13 08:12:41;;;;;;;;;;;8.70;89.40;;;;;;5011142;28;87294;-46
2024/03/13 08:15:08;;;;;;;;;;;8.70;89.30;;;;;;5014521;28;89760;-48
2024/03/13 08:17:34;;;;;;;;;;;8.70;90.00;;;;;;5014667;28;87062;-47
2024/03/13 08:20:00;;;;;;;;;;;8.70;89.30;;;;;;5019397;28;88465;-47
2024/03/13 08:22:26;;;;;;;;;;;8.70;89.20;;;;;;5015869;28;87084;-47
2024/03/13 08:24:52;;;;;;;;;;;8.70;89.10;;;;;;5015759;28;86964;-47
2024/03/13 08:27:18;;;;;;;;;;;8.70;89.20;;;;;;5013961;28;86962;-47
2024/03/13 08:29:43;;;;;;;;;;;8.70;89.20;;;;;;5017616;28;87948;-47
2024/03/13 08:32:09;;;;;;;;;;;8.70;89.20;;;;;;5021298;28;86872;-45
2024/03/13 08:34:35;;;;;;;;;;;8.70;89.20;;;;;;5016145;28;88796;-47
2024/03/13 08:37:03;;;;;;;;;;;8.70;89.30;;;;;;5019634;28;87026;-47
2024/03/13 08:39:29;;;;;;;;;;;8.70;89.20;;;;;;5014024;28;88174;-47
2024/03/13 08:41:54;;;;;;;;;;;8.70;89.20;;;;;;5020358;28;87160;-47
2024/03/13 08:44:20;;;;;;;;;;;8.60;89.20;;;;;;5016526;28;87946;-47
2024/03/13 08:46:46;;;;;;;;;;;8.70;89.30;;;;;;5015054;28;87675;-45
2024/03/13 08:49:11;;;;;;;;;;;8.70;89.20;;;;;;5011827;28;87074;-47
2024/03/13 08:51:37;;;;;;;;;;;8.60;89.30;;;;;;5015090;28;87005;-47
2024/03/13 08:54:05;;;;;;;;;;;8.60;89.10;;;;;;5016628;28;88619;-45
2024/03/13 08:56:42;;;;;;;;;;;8.60;89.20;;;;;;5016762;28;86477;-46
2024/03/13 08:59:07;;;;;;;;;;;8.70;89.20;;;;;;5014613;28;88010;-47
2024/03/13 09:01:39;;;;;;;;;;;8.70;89.30;;;;;;5017048;28;90166;-46
2024/03/13 09:04:04;;;;;;;;;;;8.60;89.20;;;;;;5013712;28;88048;-46
2024/03/13 09:06:30;;;;;;;;;;;8.60;89.70;;;;;;5017159;28;88543;-47
2024/03/13 09:08:56;;;;;;;;;;;8.70;89.30;;;;;;5015137;28;87154;-46
2024/03/13 09:11:21;;;;;;;;;;;8.70;89.10;;;;;;5011233;28;87207;-46
2024/03/13 09:13:47;;;;;;;;;;;8.70;89.20;;;;;;5018535;28;87474;-45
2024/03/13 09:16:14;;;;;;;;;;;8.70;89.20;;;;;;5019709;28;87192;-46
2024/03/13 09:18:40;;;;;;;;;;;8.70;89.20;;;;;;5015898;28;87907;-47
2024/03/13 09:21:05;;;;;;;;;;;8.70;89.00;;;;;;5023774;28;86841;-45
2024/03/13 09:23:32;;;;;;;;;;;8.70;89.10;;;;;;5017143;28;87365;-47
2024/03/13 09:25:57;;;;;;;;;;;8.70;89.10;;;;;;5017976;28;87458;-47
2024/03/13 09:28:23;;;;;;;;;;;8.70;89.10;;;;;;5022627;28;87948;-47
2024/03/13 09:30:49;;;;;;;;;;;8.70;89.10;;;;;;5020347;28;88864;-46
2024/03/13 09:33:14;;;;;;;;;;;8.70;89.00;;;;;;5019324;28;89164;-46
2024/03/13 09:35:40;;;;;;;;;;;8.70;89.00;;;;;;5016425;28;86963;-46
2024/03/13 09:38:05;;;;;;;;;;;8.70;89.00;;;;;;5023568;28;87075;-47
2024/03/13 09:40:31;;;;;;;;;;;8.70;89.10;;;;;;5021334;28;88619;-48
2024/03/13 09:43:00;;;;;;;;;;;8.70;89.20;;;;;;5021457;28;88412;-45
2024/03/13 09:45:26;;;;;;;;;;;8.70;89.10;;;;;;5023243;28;86883;-46
2024/03/13 09:47:52;;;;;;;;;;;8.70;89.00;;;;;;5019451;28;86997;-47
2024/03/13 09:50:18;;;;;;;;;;;8.70;89.00;;;;;;5019613;28;87546;-46
2024/03/13 09:52:46;;;;;;;;;;;8.70;89.10;;;;;;5017924;28;89374;-47
2024/03/13 09:55:13;;;;;;;;;;;8.70;89.00;;;;;;5019769;28;88466;-47
2024/03/13 09:57:40;;;;;;;;;;;8.70;89.10;;;;;;5021719;28;87947;-45
2024/03/13 10:00:10;;;;;;;;;;;8.70;89.10;;;;;;5018887;28;88468;-48
2024/03/13 10:02:37;;;;;;;;;;;8.70;89.00;;;;;;5016757;28;87518;-47
2024/03/13 10:05:03;;;;;;;;;;;8.70;89.20;;;;;;5026137;28;89407;-47
2024/03/13 10:07:29;;;;;;;;;;;8.70;89.10;;;;;;5018756;28;87210;-47
2024/03/13 10:09:55;;;;;;;;;;;8.70;89.10;;;;;;5020054;28;86928;-45
2024/03/13 10:12:20;;;;;;;;;;;8.70;89.20;;;;;;5017444;28;86972;-47
2024/03/13 10:14:50;;;;;;;;;;;8.70;89.00;;;;;;5029416;28;87068;-45
2024/03/13 10:17:34;;;;;;;;;;;8.70;89.10;;;;;;5021672;28;88955;-44
2024/03/13 10:20:01;;;;;;;;;;;8.70;89.00;;;;;;5020212;28;87426;-49
2024/03/13 10:22:27;;;;;;;;;;;8.70;89.00;;;;;;5026606;28;87987;-47
2024/03/13 10:24:53;;;;;;;;;;;8.70;88.80;;;;;;5011872;28;90070;-47
2024/03/13 10:27:20;;;;;;;;;;;8.70;88.90;;;;;;5020174;28;88294;-48
2024/03/13 10:29:46;;;;;;;;;;;8.70;88.90;;;;;;5021758;28;88043;-47
2024/03/13 10:32:16;;;;;;;;;;;8.70;89.60;;;;;;5017507;28;87917;-45
2024/03/13 10:34:42;;;;;;;;;;;8.70;89.10;;;;;;5023177;28;86388;-46
2024/03/13 10:37:12;;;;;;;;;;;8.80;89.60;;;;;;5015787;28;87041;-45
2024/03/13 10:39:41;;;;;;;;;;;8.70;89.20;;;;;;5016841;28;87705;-47
2024/03/13 10:42:09;;;;;;;;;;;8.70;89.30;;;;;;5014754;28;88832;-46
2024/03/13 10:44:35;;;;;;;;;;;8.70;89.20;;;;;;5021880;28;87985;-46
2024/03/13 10:47:01;;;;;;;;;;;8.70;89.20;;;;;;5015740;28;87113;-46
2024/03/13 10:49:27;;;;;;;;;;;8.70;89.20;;;;;;5025964;28;87002;-45
2024/03/13 10:52:01;;;;;;;;;;;8.70;89.30;;;;;;5019320;28;87631;-46
2024/03/13 10:54:27;;;;;;;;;;;8.70;89.40;;;;;;5018877;28;86924;-47
2024/03/13 10:56:53;;;;;;;;;;;8.70;89.40;;;;;;5016117;28;87113;-46
2024/03/13 10:59:19;;;;;;;;;;;8.70;89.50;;;;;;5015033;28;86928;-45
2024/03/13 11:01:47;;;;;;;;;;;8.70;89.40;;;;;;5020944;28;87096;-46
2024/03/13 11:04:14;;;;;;;;;;;8.70;89.50;;;;;;5014595;28;87936;-45
2024/03/13 11:06:40;;;;;;;;;;;8.70;89.70;;;;;;5018963;28;88477;-47
2024/03/13 11:09:16;;;;;;;;;;;8.70;89.60;;;;;;5019508;28;87068;-47
2024/03/13 11:11:41;;;;;;;;;;;8.70;89.70;;;;;;5017903;28;88012;-47
2024/03/13 11:14:09;;;;;;;;;;;8.70;89.70;;;;;;5017071;28;87066;-47
2024/03/13 11:16:38;;;;;;;;;;;8.70;89.70;;;;;;5017607;28;87047;-47
2024/03/13 11:19:08;;;;;;;;;;;8.70;90.10;;;;;;5014171;28;87752;-45
2024/03/13 11:21:41;;;;;;;;;;;8.70;89.80;;;;;;5017881;28;87072;-47
2024/03/13 11:24:09;;;;;;;;;;;8.70;90.00;;;;;;5019627;28;87844;-46
2024/03/13 11:26:38;;;;;;;;;;;8.70;89.80;;;;;;5015457;28;87741;-47
2024/03/13 11:29:11;;;;;;;;;;;8.70;89.90;;;;;;5018865;28;87117;-47
2024/03/13 11:31:36;;;;;;;;;;;8.70;90.00;;;;;;5017557;28;87961;-47
2024/03/13 11:34:02;;;;;;;;;;;8.70;90.00;;;;;;5017738;28;87048;-46
2024/03/13 11:36:28;;;;;;;;;;;8.70;89.90;;;;;;5018395;28;87994;-47
2024/03/13 11:38:54;;;;;;;;;;;8.70;89.80;;;;;;5012419;28;87678;-45
2024/03/13 11:41:20;;;;;;;;;;;8.70;89.80;;;;;;5017367;28;87084;-46
2024/03/13 11:43:46;;;;;;;;;;;8.70;89.90;;;;;;5019826;28;87942;-45
2024/03/13 11:46:12;;;;;;;;;;;8.70;90.00;;;;;;5015541;28;88565;-47
2024/03/13 11:48:38;;;;;;;;;;;8.80;89.90;;;;;;5018108;28;86634;-47
2024/03/13 11:51:06;;;;;;;;;;;8.70;90.00;;;;;;5017473;28;87333;-47
2024/03/13 11:53:34;;;;;;;;;;;8.80;89.90;;;;;;5020710;28;88606;-47
2024/03/13 11:56:01;;;;;;;;;;;8.80;90.00;;;;;;5014260;28;87899;-47
2024/03/13 11:58:27;;;;;;;;;;;8.80;89.90;;;;;;5016193;28;87477;-45
2024/03/13 12:00:53;;;;;;;;;;;8.70;89.90;;;;;;5014941;28;87023;-45
2024/03/13 12:03:28;;;;;;;;;;;8.80;90.00;;;;;;5020724;28;87378;-46
2024/03/13 12:05:54;;;;;;;;;;;8.70;90.00;;;;;;5015756;28;88847;-46
2024/03/13 12:08:20;;;;;;;;;;;8.70;90.10;;;;;;5018843;28;87339;-46
2024/03/13 12:10:50;;;;;;;;;;;8.70;90.00;;;;;;5012010;28;87953;-45
2024/03/13 12:13:17;;;;;;;;;;;8.70;90.00;;;;;;5019983;28;87873;-46
2024/03/13 12:15:44;;;;;;;;;;;8.70;90.10;;;;;;5022187;28;87368;-46
2024/03/13 12:18:13;;;;;;;;;;;8.70;90.20;;;;;;5019692;28;88492;-47
2024/03/13 12:20:42;;;;;;;;;;;8.70;90.20;;;;;;5012893;28;87991;-47
2024/03/13 12:23:12;;;;;;;;;;;8.70;90.20;;;;;;5014174;28;86963;-46
2024/03/13 12:25:38;;;;;;;;;;;8.70;90.10;;;;;;5012421;28;89004;-46
2024/03/13 12:28:12;;;;;;;;;;;8.70;90.40;;;;;;5016440;28;87422;-46
2024/03/13 12:30:38;;;;;;;;;;;8.70;90.10;;;;;;5013584;28;86821;-47
2024/03/13 12:33:05;;;;;;;;;;;8.70;90.10;;;;;;5015868;28;87450;-46
2024/03/13 12:35:33;;;;;;;;;;;8.70;90.10;;;;;;5019035;28;87691;-47
2024/03/13 12:37:58;;;;;;;;;;;8.70;90.10;;;;;;5018946;28;88146;-45
2024/03/13 12:40:24;;;;;;;;;;;8.70;90.10;;;;;;5014259;28;87035;-46
2024/03/13 12:42:50;;;;;;;;;;;8.80;90.10;;;;;;5017338;28;87397;-46
2024/03/13 12:45:16;;;;;;;;;;;8.80;90.10;;;;;;5017237;28;88599;-47
2024/03/13 12:47:42;;;;;;;;;;;8.80;90.10;;;;;;5011528;28;87148;-47
2024/03/13 12:50:15;;;;;;;;;;;8.80;90.10;;;;;;5017351;28;88234;-46
2024/03/13 12:52:41;;;;;;;;;;;8.80;90.10;;;;;;5019994;28;88509;-46
2024/03/13 12:55:12;;;;;;;;;;;8.80;90.10;;;;;;5020063;28;87870;-46
2024/03/13 12:57:38;;;;;;;;;;;8.80;90.00;;;;;;5022655;28;87520;-47
2024/03/13 13:00:13;;;;;;;;;;;8.80;90.00;;;;;;5024628;28;87650;-46
2024/03/13 13:02:42;;;;;;;;;;;8.90;90.10;;;;;;5021384;28;87967;-46
2024/03/13 13:05:08;;;;;;;;;;;8.90;90.10;;;;;;5018354;28;87490;-47
2024/03/13 13:07:35;;;;;;;;;;;8.90;90.00;;;;;;5020628;28;87049;-46
2024/03/13 13:10:07;;;;;;;;;;;8.90;90.00;;;;;;5018417;28;88096;-45
2024/03/13 13:12:32;;;;;;;;;;;8.80;90.00;;;;;;5021389;28;87476;-46
2024/03/13 13:14:58;;;;;;;;;;;8.90;90.10;;;;;;5021086;28;87011;-46
2024/03/13 13:17:25;;;;;;;;;;;8.80;90.10;;;;;;5017932;28;88001;-46
2024/03/13 13:19:51;;;;;;;;;;;8.80;90.10;;;;;;5019801;28;87526;-45
2024/03/13 13:22:17;;;;;;;;;;;8.90;90.10;;;;;;5026547;28;86966;-46
2024/03/13 13:24:43;;;;;;;;;;;8.80;90.10;;;;;;5019792;28;87908;-47
2024/03/13 13:27:09;;;;;;;;;;;8.90;90.10;;;;;;5018089;28;86844;-46
2024/03/13 13:29:36;;;;;;;;;;;8.90;90.10;;;;;;5018698;28;86982;-47
2024/03/13 13:32:02;;;;;;;;;;;8.90;90.10;;;;;;5020829;28;87629;-47
2024/03/13 13:34:28;;;;;;;;;;;8.80;90.00;;;;;;5018679;28;87932;-45
2024/03/13 13:36:54;;;;;;;;;;;8.90;90.10;;;;;;5018982;28;87683;-45
2024/03/13 13:39:19;;;;;;;;;;;8.90;90.10;;;;;;5012139;28;88576;-46
2024/03/13 13:41:46;;;;;;;;;;;8.90;90.10;;;;;;5024997;28;86988;-47
2024/03/13 13:44:12;;;;;;;;;;;8.80;90.20;;;;;;5021328;28;88781;-47
2024/03/13 13:46:37;;;;;;;;;;;8.90;90.20;;;;;;5019129;28;87758;-46
2024/03/13 13:49:04;;;;;;;;;;;8.90;90.30;;;;;;5021806;28;87059;-47
2024/03/13 13:51:30;;;;;;;;;;;8.90;90.20;;;;;;5017535;28;87716;-46
2024/03/13 13:53:56;;;;;;;;;;;8.80;90.20;;;;;;5021952;28;87015;-45
2024/03/13 13:56:21;;;;;;;;;;;8.80;90.30;;;;;;5011810;28;87215;-47
2024/03/13 13:58:50;;;;;;;;;;;8.90;90.30;;;;;;5017000;28;88606;-47
2024/03/13 14:01:16;;;;;;;;;;;8.90;90.20;;;;;;5017217;28;86811;-46
2024/03/13 14:03:43;;;;;;;;;;;8.90;90.30;;;;;;5016123;28;88301;-47
2024/03/13 14:06:10;;;;;;;;;;;8.90;90.30;;;;;;5016138;28;87076;-47
2024/03/13 14:08:36;;;;;;;;;;;8.90;90.30;;;;;;5024266;28;88068;-46
2024/03/13 14:11:02;;;;;;;;;;;8.90;90.20;;;;;;5017561;28;87830;-45
2024/03/13 14:13:28;;;;;;;;;;;8.90;90.30;;;;;;5018148;28;86992;-46
2024/03/13 14:15:54;;;;;;;;;;;8.90;90.20;;;;;;5017174;28;86996;-45
2024/03/13 14:18:19;;;;;;;;;;;8.90;90.20;;;;;;5016192;28;89376;-47
2024/03/13 14:20:45;;;;;;;;;;;8.90;90.10;;;;;;5021833;28;87084;-45
2024/03/13 14:23:12;;;;;;;;;;;8.90;90.10;;;;;;5017428;28;87950;-46
2024/03/13 14:25:38;;;;;;;;;;;8.90;90.40;;;;;;5022062;28;88579;-47
2024/03/13 14:28:07;;;;;;;;;;;8.90;90.10;;;;;;5022838;28;87115;-46
2024/03/13 14:30:33;;;;;;;;;;;8.90;90.10;;;;;;5022440;28;88884;-46
2024/03/13 14:32:59;;;;;;;;;;;8.90;90.10;;;;;;5014716;27;87414;-45
2024/03/13 14:35:24;;;;;;;;;;;8.90;90.00;;;;;;5018181;28;87806;-46
2024/03/13 14:37:50;;;;;;;;;;;8.90;90.10;;;;;;5018620;28;87982;-45
2024/03/13 14:40:17;;;;;;;;;;;8.90;90.00;;;;;;5017617;28;86836;-46
2024/03/13 14:42:45;;;;;;;;;;;9.00;90.00;;;;;;5019888;28;87597;-46
2024/03/13 14:45:10;;;;;;;;;;;8.90;90.00;;;;;;5010547;28;88381;-46
2024/03/13 14:47:36;;;;;;;;;;;8.90;90.00;;;;;;5016985;28;88073;-44